To NAV CANADA Home Page Login to a new session Search on AWWS site Feedback and Comments Disclaimer Vers la page française équivalente Tips FAQ What's new on the site To the Forecasts and Observations / NOTAM section To "File a Flight Plan" website Publications and other links Update of the User's profile FIC Telephone Numbers My Weather Data Folder Route Weather Data Regional Weather Data Local Weather Data To the Forecasts and Observations / NOTAM section
Request Generated 04/19/2014 at 14:29:38 UTC . Weather information available at that time is displayed.

METAR/TAF

BRANDON/BRANDON MUNICIPALITY/MB    

METAR CYBR 191400Z 24011KT 8SM BKN020 04/03 A2963 RMK SC5 SLP051=
METAR CYBR 191300Z 28002KT 8SM BKN017 BKN035 01/01 A2964 RMK SC5SC2
SLP054=
METAR CYBR 191200Z 22003KT 8SM BKN019 01/00 A2965 RMK SC5 SLP059=

TAF CYBR 191138Z 1912/1924 VRB03KT P6SM SCT020 OVC025 TEMPO 1912/1916
P6SM -RA BKN008
FM191600 26015KT P6SM SCT015 OVC030 TEMPO 1916/1924 BKN015
BECMG 1916/1918 26020G30KT
RMK NXT FCST BY 191800Z=
Your time UTC time
Weather data provided by Environment Canada and NAV CANADA